createdAt,value
2022-12-20T00:04:33.639Z,101494.84
2022-12-20T00:09:40.648Z,101491.69
2022-12-20T00:14:47.501Z,101491.13
2022-12-20T00:19:55.360Z,101482.84
2022-12-20T00:25:01.560Z,101482.19
2022-12-20T00:30:11.207Z,101477.94
2022-12-20T00:35:19.453Z,101472.31
2022-12-20T00:40:26.810Z,101466.63
2022-12-20T00:45:33.804Z,101465.94
2022-12-20T00:50:41.870Z,101462.81
2022-12-20T00:55:49.596Z,101462.94
2022-12-20T01:00:57.310Z,101449.41
2022-12-20T01:06:05.912Z,101442.72
2022-12-20T01:11:17.702Z,101423.66
2022-12-20T01:16:30.198Z,101425.47
2022-12-20T01:21:40.324Z,101418.84
2022-12-20T01:26:48.118Z,101405.28
2022-12-20T01:31:55.397Z,101395.28
2022-12-20T01:37:03.497Z,101380.13
2022-12-20T01:42:15.429Z,101380.25
2022-12-20T01:47:23.284Z,101363.31
2022-12-20T01:52:38.068Z,101356.63
2022-12-20T01:57:51.746Z,101357.69
2022-12-20T02:03:02.455Z,101356.97
2022-12-20T02:08:11.790Z,101347.81
2022-12-20T02:13:32.359Z,101345.19
2022-12-20T02:18:47.544Z,101352.00
2022-12-20T02:24:56.113Z,101354.78
2022-12-20T02:30:10.300Z,101332.72
2022-12-20T02:35:23.179Z,101321.78
2022-12-20T02:40:35.003Z,101328.75
2022-12-20T02:45:43.118Z,101328.75
2022-12-20T02:50:55.907Z,101323.75
2022-12-20T02:56:09.517Z,101331.50
2022-12-20T03:01:24.693Z,101329.69
2022-12-20T03:06:34.906Z,101350.16
2022-12-20T03:11:41.563Z,101332.28
2022-12-20T03:16:49.633Z,101307.94
2022-12-20T03:21:56.160Z,101308.09
2022-12-20T03:27:02.975Z,101318.22
2022-12-20T03:32:11.905Z,101321.72
2022-12-20T03:37:22.368Z,101319.34
2022-12-20T03:42:28.940Z,101321.00
2022-12-20T03:47:36.935Z,101318.47
2022-12-20T03:52:43.446Z,101297.25
2022-12-20T03:57:50.177Z,101289.56
2022-12-20T04:03:19.223Z,101281.16
2022-12-20T04:08:25.791Z,101277.81
2022-12-20T04:13:32.889Z,101284.69
2022-12-20T04:18:40.848Z,101289.75
2022-12-20T04:23:47.793Z,101296.59
2022-12-20T04:28:55.579Z,101303.44
2022-12-20T04:34:03.745Z,101290.53
2022-12-20T04:39:12.505Z,101282.06
2022-12-20T04:44:32.807Z,101292.44
2022-12-20T04:49:40.799Z,101273.72
2022-12-20T04:54:48.232Z,101264.38
2022-12-20T05:00:01.576Z,101276.41
2022-12-20T05:05:12.856Z,101266.31
2022-12-20T05:10:27.990Z,101266.47
2022-12-20T05:15:39.023Z,101267.25
2022-12-20T05:20:47.456Z,101256.97
2022-12-20T05:26:12.873Z,101257.06
2022-12-20T05:31:19.780Z,101264.88
2022-12-20T05:36:30.897Z,101261.28
2022-12-20T05:41:39.404Z,101266.47
2022-12-20T05:46:47.177Z,101261.50
2022-12-20T05:52:01.012Z,101262.56
2022-12-20T05:57:07.663Z,101258.47
2022-12-20T06:02:17.938Z,101259.25
2022-12-20T06:07:32.812Z,101256.69
2022-12-20T06:12:40.375Z,101255.91
2022-12-20T06:17:47.085Z,101249.16
2022-12-20T06:23:01.599Z,101247.47
2022-12-20T06:28:14.275Z,101244.91
2022-12-20T06:33:21.186Z,101249.19
2022-12-20T06:38:31.567Z,101270.59
2022-12-20T06:43:38.625Z,101274.97
2022-12-20T06:48:45.244Z,101280.16
2022-12-20T06:53:55.104Z,101279.47
2022-12-20T06:59:02.582Z,101290.88
2022-12-20T07:04:09.203Z,101299.44
2022-12-20T07:09:17.200Z,101291.63
2022-12-20T07:14:23.994Z,101284.59
2022-12-20T07:19:32.563Z,101283.69
2022-12-20T07:24:40.479Z,101285.28
2022-12-20T07:29:47.361Z,101286.25
2022-12-20T07:34:54.217Z,101270.03
2022-12-20T07:40:02.193Z,101278.81
2022-12-20T07:45:10.947Z,101273.97
2022-12-20T07:50:17.568Z,101280.94
2022-12-20T07:55:26.049Z,101259.47
2022-12-20T08:00:33.031Z,101262.03
2022-12-20T08:05:44.449Z,101254.50
2022-12-20T08:10:52.966Z,101262.19
2022-12-20T08:15:59.283Z,101272.59
2022-12-20T08:21:05.953Z,101262.31
2022-12-20T08:26:13.682Z,101271.97
2022-12-20T08:31:19.972Z,101272.28
2022-12-20T08:36:26.286Z,101271.44
2022-12-20T08:41:37.807Z,101276.44
2022-12-20T08:46:44.348Z,101282.31
2022-12-20T08:51:50.730Z,101273.88
2022-12-20T08:56:58.608Z,101289.53
2022-12-20T09:02:05.126Z,101275.28
2022-12-20T09:07:11.570Z,101278.00
2022-12-20T09:12:19.243Z,101268.72
2022-12-20T09:17:25.460Z,101250.75
2022-12-20T09:22:33.140Z,101252.44
2022-12-20T09:27:41.743Z,101256.81
2022-12-20T09:32:48.476Z,101257.53
2022-12-20T09:37:54.978Z,101261.00
2022-12-20T09:43:03.274Z,101257.59
2022-12-20T09:48:16.753Z,101259.41
2022-12-20T09:53:32.898Z,101265.66
2022-12-20T09:59:04.133Z,101266.50
2022-12-20T10:04:20.995Z,101264.81
2022-12-20T10:09:59.362Z,101268.22
2022-12-20T10:15:25.153Z,101257.94
2022-12-20T10:20:46.651Z,101259.00
2022-12-20T10:25:55.376Z,101253.00
2022-12-20T10:31:07.651Z,101242.75
2022-12-20T10:36:27.637Z,101242.81
2022-12-20T10:41:49.788Z,101230.84
2022-12-20T10:47:00.005Z,101211.91
2022-12-20T10:52:15.978Z,101199.13
2022-12-20T10:57:26.290Z,101184.53
2022-12-20T11:02:41.688Z,101181.09
2022-12-20T11:13:29.757Z,101187.22
2022-12-20T11:18:53.935Z,101181.44
2022-12-20T11:24:10.640Z,101166.00
2022-12-20T11:29:50.031Z,101180.72
2022-12-20T11:35:11.627Z,101180.91
2022-12-20T11:40:32.922Z,101163.78
2022-12-20T11:45:51.035Z,101158.66
2022-12-20T11:51:15.473Z,101167.34
2022-12-20T11:56:32.633Z,101165.78
2022-12-20T12:01:45.773Z,101154.66
2022-12-20T12:07:00.236Z,101146.84
2022-12-20T12:12:14.857Z,101146.16
2022-12-20T12:17:32.483Z,101151.47
2022-12-20T12:22:42.625Z,101158.25
2022-12-20T12:27:49.152Z,101147.88
2022-12-20T12:33:03.330Z,101134.13
2022-12-20T12:38:48.448Z,101137.47
2022-12-20T12:43:56.756Z,101128.94
2022-12-20T12:49:08.432Z,101144.44
2022-12-20T12:54:26.070Z,101147.88
2022-12-20T12:59:53.469Z,101157.16
2022-12-20T13:05:03.729Z,101160.56
2022-12-20T13:11:02.050Z,101153.69
2022-12-20T13:17:02.724Z,101165.63
2022-12-20T13:22:00.043Z,101162.28
2022-12-20T13:27:32.823Z,101156.31
2022-12-20T13:33:21.874Z,101156.31
2022-12-20T13:38:55.081Z,101154.66
2022-12-20T13:44:28.736Z,101165.78
2022-12-20T13:49:40.524Z,101159.78
2022-12-20T13:54:50.653Z,101155.56
2022-12-20T14:00:06.861Z,101150.38
2022-12-20T14:05:21.993Z,101140.84
2022-12-20T14:10:33.066Z,101151.81
2022-12-20T14:15:41.359Z,101141.41
2022-12-20T14:20:52.607Z,101146.63
2022-12-20T14:26:02.425Z,101141.56
2022-12-20T14:31:26.895Z,101139.03
2022-12-20T14:36:34.716Z,101131.16
2022-12-20T14:41:46.174Z,101125.03
2022-12-20T14:46:57.850Z,101124.91
2022-12-20T14:52:16.692Z,101123.19
2022-12-20T14:57:27.469Z,101124.81
2022-12-20T15:02:47.945Z,101126.50
2022-12-20T15:07:54.708Z,101115.28
2022-12-20T15:13:01.432Z,101108.34
2022-12-20T15:18:15.240Z,101099.72
2022-12-20T15:23:24.017Z,101102.28
2022-12-20T15:28:30.938Z,101100.50
2022-12-20T15:33:42.586Z,101097.09
2022-12-20T15:44:19.281Z,101074.81
2022-12-20T15:49:31.115Z,101069.66
2022-12-20T15:54:39.175Z,101073.97
2022-12-20T15:59:59.768Z,101078.22
2022-12-20T16:05:15.193Z,101091.84
2022-12-20T16:10:22.459Z,101079.09
2022-12-20T16:15:29.135Z,101081.72
2022-12-20T16:20:37.342Z,101079.97
2022-12-20T16:25:43.976Z,101091.09
2022-12-20T16:30:53.400Z,101089.38
2022-12-20T16:36:04.170Z,101085.16
2022-12-20T16:41:16.913Z,101094.50
2022-12-20T16:46:26.705Z,101092.78
2022-12-20T16:51:36.760Z,101058.63
2022-12-20T16:56:44.361Z,101080.94
2022-12-20T17:01:53.484Z,101099.75
2022-12-20T17:07:01.139Z,101028.63
2022-12-20T17:12:15.521Z,101044.94
2022-12-20T17:17:21.884Z,101053.56
2022-12-20T17:27:54.293Z,101044.16
2022-12-20T17:33:00.706Z,101038.16
2022-12-20T17:38:08.620Z,101034.78
2022-12-20T17:43:15.209Z,101037.34
2022-12-20T17:48:21.606Z,101046.00
2022-12-20T17:53:29.629Z,101045.91
2022-12-20T17:58:36.216Z,101028.72
2022-12-20T18:09:16.704Z,101050.19
2022-12-20T18:14:23.286Z,101055.34
2022-12-20T18:19:29.900Z,101031.31
2022-12-20T18:24:37.755Z,101027.09
2022-12-20T18:29:44.227Z,101017.66
2022-12-20T18:34:51.306Z,101033.94
2022-12-20T18:39:59.756Z,101036.53
2022-12-20T18:45:07.791Z,101030.56
2022-12-20T18:50:15.700Z,101026.25
2022-12-20T18:55:25.352Z,101034.88
2022-12-20T19:00:31.868Z,101040.94
2022-12-20T19:05:39.087Z,101031.50
2022-12-20T19:10:48.385Z,101014.34
2022-12-20T19:16:04.417Z,101009.13
2022-12-20T19:21:16.246Z,101004.03
2022-12-20T19:26:29.465Z,101008.34
2022-12-20T19:31:39.434Z,100998.91
2022-12-20T19:36:49.157Z,101001.41
2022-12-20T19:47:29.651Z,100986.84
2022-12-20T19:52:39.233Z,100978.25
2022-12-20T19:57:48.699Z,100995.41
2022-12-20T20:02:56.184Z,100987.63
2022-12-20T20:08:04.924Z,100969.66
2022-12-20T20:13:14.221Z,100955.13
2022-12-20T20:18:20.953Z,100968.78
2022-12-20T20:23:29.569Z,100967.06
2022-12-20T20:28:45.017Z,100963.72
2022-12-20T20:33:54.087Z,100986.84
2022-12-20T20:39:01.479Z,100963.72
2022-12-20T20:44:13.892Z,100958.63
2022-12-20T20:49:21.355Z,100954.28
2022-12-20T20:54:29.071Z,100962.09
2022-12-20T20:59:38.166Z,100965.50
2022-12-20T21:04:59.309Z,100951.78
2022-12-20T21:10:12.591Z,100954.38
2022-12-20T21:15:23.272Z,100938.03
2022-12-20T21:20:30.734Z,100945.75
2022-12-20T21:25:37.531Z,100949.16
2022-12-20T21:30:45.713Z,100945.81
2022-12-20T21:36:00.542Z,100932.06
2022-12-20T21:41:10.026Z,100938.13
2022-12-20T21:46:18.484Z,100928.69
2022-12-20T21:51:27.787Z,100920.13
2022-12-20T21:56:36.064Z,100926.97
2022-12-20T22:01:46.202Z,100910.69
2022-12-20T22:06:53.017Z,100914.06
2022-12-20T22:11:59.614Z,100929.47
2022-12-20T22:17:07.481Z,100931.19
2022-12-20T22:22:14.002Z,100917.53
2022-12-20T22:27:20.599Z,100918.47
2022-12-20T22:32:29.691Z,100907.34
2022-12-20T22:37:36.108Z,100903.06
2022-12-20T22:42:43.258Z,100891.94
2022-12-20T22:53:15.061Z,100883.31
2022-12-20T22:58:21.500Z,100881.59
2022-12-20T23:03:30.579Z,100895.28
2022-12-20T23:08:39.212Z,100882.38
2022-12-20T23:14:03.698Z,100869.47
2022-12-20T23:19:11.915Z,100863.47
2022-12-20T23:24:18.484Z,100846.34
2022-12-20T23:29:25.112Z,100829.25
2022-12-20T23:34:33.573Z,100823.22
2022-12-20T23:39:40.697Z,100825.72
2022-12-20T23:44:47.391Z,100835.13
2022-12-20T23:49:55.642Z,100816.25
2022-12-20T23:55:02.116Z,100809.44
